sensor_id;sensor_type;location;lat;lon;timestamp;P1;durP1;ratioP1;P2;durP2;ratioP2
34146;SDS011;20423;49.448;9.056;2023-04-16T00:00:46;20.27;;;11.68;;
34146;SDS011;20423;49.448;9.056;2023-04-16T00:01:10;14.2;;;11.9;;
34146;SDS011;20423;49.448;9.056;2023-04-16T00:03:12;20.42;;;11.18;;
34146;SDS011;20423;49.448;9.056;2023-04-16T00:05:38;24.10;;;11.32;;
34146;SDS011;20423;49.448;9.056;2023-04-16T00:06:06;14.3;;;11;;
34146;SDS011;20423;49.448;9.056;2023-04-16T00:08:04;21.48;;;11.13;;
34146;SDS011;20423;49.448;9.056;2023-04-16T00:10:30;21.70;;;11.57;;
34146;SDS011;20423;49.448;9.056;2023-04-16T00:11:10;13.6;;;12.2;;
34146;SDS011;20423;49.448;9.056;2023-04-16T00:12:55;21.52;;;11.43;;
34146;SDS011;20423;49.448;9.056;2023-04-16T00:15:21;24.05;;;12.63;;
34146;SDS011;20423;49.448;9.056;2023-04-16T00:16:40;12.8;;;11;;
34146;SDS011;20423;49.448;9.056;2023-04-16T00:17:47;20.60;;;12.43;;
34146;SDS011;20423;49.448;9.056;2023-04-16T00:20:12;27.00;;;12.98;;
34146;SDS011;20423;49.448;9.056;2023-04-16T00:21:22;13;;;10.8;;
34146;SDS011;20423;49.448;9.056;2023-04-16T00:22:39;34.90;;;16.55;;
34146;SDS011;20423;49.448;9.056;2023-04-16T00:25:05;34.97;;;16.90;;
34146;SDS011;20423;49.448;9.056;2023-04-16T00:26:04;11.5;;;9.3;;
34146;SDS011;20423;49.448;9.056;2023-04-16T00:27:31;31.77;;;17.58;;
34146;SDS011;20423;49.448;9.056;2023-04-16T00:29:57;38.85;;;18.42;;
34146;SDS011;20423;49.448;9.056;2023-04-16T00:31:40;11.9;;;10.3;;
34146;SDS011;20423;49.448;9.056;2023-04-16T00:32:22;34.47;;;18.02;;
34146;SDS011;20423;49.448;9.056;2023-04-16T00:34:48;38.15;;;18.00;;
34146;SDS011;20423;49.448;9.056;2023-04-16T00:36:04;13.2;;;11;;
34146;SDS011;20423;49.448;9.056;2023-04-16T00:37:14;42.28;;;19.23;;
34146;SDS011;20423;49.448;9.056;2023-04-16T00:39:40;38.40;;;18.48;;
34146;SDS011;20423;49.448;9.056;2023-04-16T00:41:41;12.7;;;10.9;;
34146;SDS011;20423;49.448;9.056;2023-04-16T00:42:06;41.75;;;19.60;;
34146;SDS011;20423;49.448;9.056;2023-04-16T00:44:31;39.05;;;18.25;;
34146;SDS011;20423;49.448;9.056;2023-04-16T00:46:16;14.2;;;11.8;;
34146;SDS011;20423;49.448;9.056;2023-04-16T00:47:00;38.63;;;18.95;;
34146;SDS011;20423;49.448;9.056;2023-04-16T00:49:26;40.28;;;18.27;;
34146;SDS011;20423;49.448;9.056;2023-04-16T00:51:04;13.8;;;11.2;;
34146;SDS011;20423;49.448;9.056;2023-04-16T00:51:55;49.20;;;21.20;;
34146;SDS011;20423;49.448;9.056;2023-04-16T00:54:21;41.33;;;19.60;;
34146;SDS011;20423;49.448;9.056;2023-04-16T00:56:28;13.1;;;10.8;;
34146;SDS011;20423;49.448;9.056;2023-04-16T00:56:50;46.78;;;20.63;;
34146;SDS011;20423;49.448;9.056;2023-04-16T00:59:15;46.17;;;21.13;;
34146;SDS011;20423;49.448;9.056;2023-04-16T01:01:04;13.5;;;10.4;;
34146;SDS011;20423;49.448;9.056;2023-04-16T01:01:41;44.08;;;19.27;;
34146;SDS011;20423;49.448;9.056;2023-04-16T01:04:07;48.95;;;22.50;;
34146;SDS011;20423;49.448;9.056;2023-04-16T01:06:33;43.22;;;20.70;;
34146;SDS011;20423;49.448;9.056;2023-04-16T01:06:38;11.2;;;10;;
34146;SDS011;20423;49.448;9.056;2023-04-16T01:08:59;42.30;;;20.00;;
34146;SDS011;20423;49.448;9.056;2023-04-16T01:11:04;11.9;;;10.8;;
34146;SDS011;20423;49.448;9.056;2023-04-16T01:11:24;47.17;;;21.50;;
34146;SDS011;20423;49.448;9.056;2023-04-16T01:13:50;47.05;;;21.90;;
34146;SDS011;20423;49.448;9.056;2023-04-16T01:16:04;13.9;;;10.7;;
34146;SDS011;20423;49.448;9.056;2023-04-16T01:16:16;51.88;;;20.77;;
34146;SDS011;20423;49.448;9.056;2023-04-16T01:18:41;39.13;;;18.98;;
34146;SDS011;20423;49.448;9.056;2023-04-16T01:21:07;51.75;;;23.27;;
34146;SDS011;20423;49.448;9.056;2023-04-16T01:21:28;13.6;;;11.9;;
34146;SDS011;20423;49.448;9.056;2023-04-16T01:23:33;48.28;;;21.05;;
34146;SDS011;20423;49.448;9.056;2023-04-16T01:25:59;50.28;;;21.08;;
34146;SDS011;20423;49.448;9.056;2023-04-16T01:26:04;14.4;;;12.2;;
34146;SDS011;20423;49.448;9.056;2023-04-16T01:28:25;49.55;;;20.98;;
34146;SDS011;20423;49.448;9.056;2023-04-16T01:30:51;49.45;;;22.38;;
34146;SDS011;20423;49.448;9.056;2023-04-16T01:31:40;14.4;;;11.9;;
34146;SDS011;20423;49.448;9.056;2023-04-16T01:33:25;51.15;;;23.10;;
34146;SDS011;20423;49.448;9.056;2023-04-16T01:35:51;54.58;;;22.58;;
34146;SDS011;20423;49.448;9.056;2023-04-16T01:36:04;13.6;;;11.1;;
34146;SDS011;20423;49.448;9.056;2023-04-16T01:38:17;53.50;;;24.27;;
34146;SDS011;20423;49.448;9.056;2023-04-16T01:40:42;53.47;;;23.63;;
34146;SDS011;20423;49.448;9.056;2023-04-16T01:41:04;14.3;;;11.4;;
34146;SDS011;20423;49.448;9.056;2023-04-16T01:43:08;59.33;;;24.73;;
34146;SDS011;20423;49.448;9.056;2023-04-16T01:45:34;57.80;;;26.20;;
34146;SDS011;20423;49.448;9.056;2023-04-16T01:46:26;13.3;;;10.9;;
34146;SDS011;20423;49.448;9.056;2023-04-16T01:48:00;60.53;;;25.80;;
34146;SDS011;20423;49.448;9.056;2023-04-16T01:50:26;58.00;;;25.63;;
34146;SDS011;20423;49.448;9.056;2023-04-16T01:51:04;13.8;;;12.2;;
34146;SDS011;20423;49.448;9.056;2023-04-16T01:52:51;62.38;;;25.77;;
34146;SDS011;20423;49.448;9.056;2023-04-16T01:55:17;63.78;;;28.95;;
34146;SDS011;20423;49.448;9.056;2023-04-16T01:56:40;13.5;;;11.2;;
34146;SDS011;20423;49.448;9.056;2023-04-16T01:57:43;79.30;;;30.73;;
34146;SDS011;20423;49.448;9.056;2023-04-16T02:00:09;75.28;;;31.08;;
34146;SDS011;20423;49.448;9.056;2023-04-16T02:01:10;12.3;;;10;;
34146;SDS011;20423;49.448;9.056;2023-04-16T02:02:43;82.25;;;31.75;;
34146;SDS011;20423;49.448;9.056;2023-04-16T02:05:10;77.63;;;32.75;;
34146;SDS011;20423;49.448;9.056;2023-04-16T02:06:04;12.4;;;10.5;;
34146;SDS011;20423;49.448;9.056;2023-04-16T02:07:35;81.05;;;35.05;;
34146;SDS011;20423;49.448;9.056;2023-04-16T02:10:01;79.53;;;33.35;;
34146;SDS011;20423;49.448;9.056;2023-04-16T02:11:24;13.3;;;10.5;;
34146;SDS011;20423;49.448;9.056;2023-04-16T02:12:28;84.10;;;33.55;;
34146;SDS011;20423;49.448;9.056;2023-04-16T02:14:54;75.78;;;33.05;;
34146;SDS011;20423;49.448;9.056;2023-04-16T02:16:10;12.8;;;10.9;;
34146;SDS011;20423;49.448;9.056;2023-04-16T02:17:23;78.40;;;34.00;;
34146;SDS011;20423;49.448;9.056;2023-04-16T02:19:49;74.80;;;32.10;;
34146;SDS011;20423;49.448;9.056;2023-04-16T02:21:42;11.9;;;10;;
34146;SDS011;20423;49.448;9.056;2023-04-16T02:22:16;85.45;;;33.85;;
34146;SDS011;20423;49.448;9.056;2023-04-16T02:24:41;88.97;;;34.40;;
34146;SDS011;20423;49.448;9.056;2023-04-16T02:26:16;11.9;;;9.8;;
34146;SDS011;20423;49.448;9.056;2023-04-16T02:27:09;79.60;;;34.28;;
34146;SDS011;20423;49.448;9.056;2023-04-16T02:29:34;88.28;;;35.58;;
34146;SDS011;20423;49.448;9.056;2023-04-16T02:31:20;11;;;9.7;;
34146;SDS011;20423;49.448;9.056;2023-04-16T02:35:55;87.13;;;35.10;;
34146;SDS011;20423;49.448;9.056;2023-04-16T02:36:28;12.4;;;10;;
34146;SDS011;20423;49.448;9.056;2023-04-16T02:38:20;79.95;;;34.65;;
34146;SDS011;20423;49.448;9.056;2023-04-16T02:40:46;89.10;;;35.85;;
34146;SDS011;20423;49.448;9.056;2023-04-16T02:41:10;11.6;;;10.4;;
34146;SDS011;20423;49.448;9.056;2023-04-16T02:43:12;89.90;;;37.03;;
34146;SDS011;20423;49.448;9.056;2023-04-16T02:45:37;93.95;;;36.55;;
34146;SDS011;20423;49.448;9.056;2023-04-16T02:48:03;91.78;;;39.47;;
34146;SDS011;20423;49.448;9.056;2023-04-16T02:50:31;92.57;;;37.05;;
34146;SDS011;20423;49.448;9.056;2023-04-16T02:52:56;104.18;;;39.83;;
34146;SDS011;20423;49.448;9.056;2023-04-16T02:55:22;96.28;;;40.05;;
34146;SDS011;20423;49.448;9.056;2023-04-16T02:57:48;99.97;;;39.10;;
34146;SDS011;20423;49.448;9.056;2023-04-16T03:00:13;108.53;;;41.67;;
34146;SDS011;20423;49.448;9.056;2023-04-16T03:02:40;94.35;;;38.72;;
34146;SDS011;20423;49.448;9.056;2023-04-16T03:05:06;100.75;;;40.40;;
34146;SDS011;20423;49.448;9.056;2023-04-16T03:07:32;127.00;;;44.53;;
34146;SDS011;20423;49.448;9.056;2023-04-16T03:09:59;118.38;;;43.35;;
34146;SDS011;20423;49.448;9.056;2023-04-16T03:12:25;120.05;;;43.22;;
34146;SDS011;20423;49.448;9.056;2023-04-16T03:14:50;111.93;;;44.42;;
34146;SDS011;20423;49.448;9.056;2023-04-16T03:17:16;115.20;;;41.80;;
34146;SDS011;20423;49.448;9.056;2023-04-16T03:19:42;121.30;;;44.75;;
34146;SDS011;20423;49.448;9.056;2023-04-16T03:22:08;122.50;;;44.78;;
34146;SDS011;20423;49.448;9.056;2023-04-16T03:24:33;120.57;;;44.55;;
34146;SDS011;20423;49.448;9.056;2023-04-16T03:26:59;114.72;;;44.85;;
34146;SDS011;20423;49.448;9.056;2023-04-16T03:29:27;115.03;;;46.33;;
34146;SDS011;20423;49.448;9.056;2023-04-16T03:31:53;118.38;;;44.83;;
34146;SDS011;20423;49.448;9.056;2023-04-16T03:34:21;119.93;;;45.13;;
34146;SDS011;20423;49.448;9.056;2023-04-16T03:36:47;126.22;;;45.40;;
34146;SDS011;20423;49.448;9.056;2023-04-16T03:39:12;120.07;;;47.35;;
34146;SDS011;20423;49.448;9.056;2023-04-16T03:41:38;114.10;;;43.33;;
34146;SDS011;20423;49.448;9.056;2023-04-16T03:44:04;115.55;;;44.75;;
34146;SDS011;20423;49.448;9.056;2023-04-16T03:46:31;118.47;;;45.17;;
34146;SDS011;20423;49.448;9.056;2023-04-16T03:49:06;123.07;;;47.45;;
34146;SDS011;20423;49.448;9.056;2023-04-16T03:51:32;114.13;;;45.30;;
34146;SDS011;20423;49.448;9.056;2023-04-16T03:53:57;119.82;;;45.33;;
34146;SDS011;20423;49.448;9.056;2023-04-16T03:56:24;110.78;;;43.63;;
34146;SDS011;20423;49.448;9.056;2023-04-16T03:58:51;124.60;;;45.00;;
34146;SDS011;20423;49.448;9.056;2023-04-16T04:01:17;122.82;;;43.85;;
34146;SDS011;20423;49.448;9.056;2023-04-16T04:03:43;118.88;;;45.42;;
34146;SDS011;20423;49.448;9.056;2023-04-16T04:06:11;118.55;;;46.22;;
34146;SDS011;20423;49.448;9.056;2023-04-16T04:08:37;128.55;;;48.20;;
34146;SDS011;20423;49.448;9.056;2023-04-16T04:11:04;130.20;;;47.35;;
34146;SDS011;20423;49.448;9.056;2023-04-16T04:13:31;111.10;;;44.13;;
34146;SDS011;20423;49.448;9.056;2023-04-16T04:15:57;118.97;;;44.05;;
34146;SDS011;20423;49.448;9.056;2023-04-16T04:18:23;117.63;;;46.80;;
34146;SDS011;20423;49.448;9.056;2023-04-16T04:20:48;114.68;;;45.50;;
34146;SDS011;20423;49.448;9.056;2023-04-16T04:23:17;111.32;;;44.40;;
34146;SDS011;20423;49.448;9.056;2023-04-16T04:25:44;119.95;;;46.17;;
34146;SDS011;20423;49.448;9.056;2023-04-16T04:28:11;125.22;;;44.13;;
34146;SDS011;20423;49.448;9.056;2023-04-16T04:30:37;121.88;;;44.40;;
34146;SDS011;20423;49.448;9.056;2023-04-16T04:33:04;109.95;;;41.72;;
34146;SDS011;20423;49.448;9.056;2023-04-16T04:35:32;118.50;;;43.70;;
34146;SDS011;20423;49.448;9.056;2023-04-16T04:37:59;115.15;;;42.72;;
34146;SDS011;20423;49.448;9.056;2023-04-16T04:40:27;119.93;;;43.55;;
34146;SDS011;20423;49.448;9.056;2023-04-16T04:42:53;103.05;;;40.65;;
34146;SDS011;20423;49.448;9.056;2023-04-16T04:45:21;99.63;;;40.60;;
34146;SDS011;20423;49.448;9.056;2023-04-16T04:47:53;111.45;;;42.38;;
34146;SDS011;20423;49.448;9.056;2023-04-16T04:50:19;111.30;;;41.17;;
34146;SDS011;20423;49.448;9.056;2023-04-16T04:52:46;91.70;;;39.13;;
34146;SDS011;20423;49.448;9.056;2023-04-16T04:55:12;107.38;;;40.95;;
34146;SDS011;20423;49.448;9.056;2023-04-16T04:57:40;105.75;;;41.05;;
34146;SDS011;20423;49.448;9.056;2023-04-16T05:00:07;93.22;;;38.88;;
34146;SDS011;20423;49.448;9.056;2023-04-16T05:02:50;92.65;;;38.78;;
34146;SDS011;20423;49.448;9.056;2023-04-16T05:05:16;98.55;;;39.60;;
34146;SDS011;20423;49.448;9.056;2023-04-16T05:07:42;95.03;;;39.67;;
34146;SDS011;20423;49.448;9.056;2023-04-16T05:10:08;96.47;;;39.58;;
34146;SDS011;20423;49.448;9.056;2023-04-16T05:12:34;100.30;;;41.00;;
34146;SDS011;20423;49.448;9.056;2023-04-16T05:14:59;86.63;;;38.55;;
34146;SDS011;20423;49.448;9.056;2023-04-16T05:17:25;92.45;;;38.22;;
34146;SDS011;20423;49.448;9.056;2023-04-16T05:19:51;87.18;;;38.40;;
34146;SDS011;20423;49.448;9.056;2023-04-16T05:22:17;83.75;;;37.22;;
34146;SDS011;20423;49.448;9.056;2023-04-16T05:24:43;82.38;;;36.65;;
34146;SDS011;20423;49.448;9.056;2023-04-16T05:27:09;80.97;;;36.53;;
34146;SDS011;20423;49.448;9.056;2023-04-16T05:29:35;79.97;;;36.00;;
34146;SDS011;20423;49.448;9.056;2023-04-16T05:32:01;84.22;;;35.78;;
34146;SDS011;20423;49.448;9.056;2023-04-16T05:34:27;79.15;;;37.65;;
34146;SDS011;20423;49.448;9.056;2023-04-16T05:36:53;81.45;;;35.10;;
34146;SDS011;20423;49.448;9.056;2023-04-16T05:39:19;73.50;;;32.75;;
34146;SDS011;20423;49.448;9.056;2023-04-16T05:41:45;76.80;;;34.30;;
34146;SDS011;20423;49.448;9.056;2023-04-16T05:44:11;76.25;;;35.17;;
34146;SDS011;20423;49.448;9.056;2023-04-16T05:46:36;74.95;;;34.83;;
34146;SDS011;20423;49.448;9.056;2023-04-16T05:49:02;72.93;;;33.55;;
34146;SDS011;20423;49.448;9.056;2023-04-16T05:51:28;74.65;;;33.65;;
34146;SDS011;20423;49.448;9.056;2023-04-16T05:53:54;75.15;;;34.65;;
34146;SDS011;20423;49.448;9.056;2023-04-16T05:56:19;73.20;;;33.83;;
34146;SDS011;20423;49.448;9.056;2023-04-16T05:58:46;68.60;;;32.70;;
34146;SDS011;20423;49.448;9.056;2023-04-16T06:01:11;63.70;;;30.70;;
34146;SDS011;20423;49.448;9.056;2023-04-16T06:03:37;64.75;;;30.85;;
34146;SDS011;20423;49.448;9.056;2023-04-16T06:06:03;66.43;;;32.42;;
34146;SDS011;20423;49.448;9.056;2023-04-16T06:08:29;70.53;;;32.50;;
34146;SDS011;20423;49.448;9.056;2023-04-16T06:10:55;71.72;;;31.08;;
34146;SDS011;20423;49.448;9.056;2023-04-16T06:13:21;64.03;;;31.17;;
34146;SDS011;20423;49.448;9.056;2023-04-16T06:15:47;59.63;;;28.17;;
34146;SDS011;20423;49.448;9.056;2023-04-16T06:18:12;62.67;;;29.52;;
34146;SDS011;20423;49.448;9.056;2023-04-16T06:20:38;67.07;;;30.42;;
34146;SDS011;20423;49.448;9.056;2023-04-16T06:23:04;63.80;;;28.02;;
34146;SDS011;20423;49.448;9.056;2023-04-16T06:25:30;57.75;;;27.58;;
34146;SDS011;20423;49.448;9.056;2023-04-16T06:27:56;58.85;;;28.50;;
34146;SDS011;20423;49.448;9.056;2023-04-16T06:30:22;59.38;;;26.85;;
34146;SDS011;20423;49.448;9.056;2023-04-16T06:32:48;56.78;;;26.65;;
34146;SDS011;20423;49.448;9.056;2023-04-16T06:35:13;54.42;;;25.73;;
34146;SDS011;20423;49.448;9.056;2023-04-16T06:41:26;50.08;;;25.10;;
34146;SDS011;20423;49.448;9.056;2023-04-16T06:43:52;51.30;;;25.15;;
34146;SDS011;20423;49.448;9.056;2023-04-16T06:46:18;60.75;;;25.73;;
34146;SDS011;20423;49.448;9.056;2023-04-16T06:48:44;55.40;;;24.98;;
34146;SDS011;20423;49.448;9.056;2023-04-16T06:51:11;61.45;;;28.75;;
34146;SDS011;20423;49.448;9.056;2023-04-16T06:53:37;52.60;;;25.35;;
34146;SDS011;20423;49.448;9.056;2023-04-16T06:56:03;54.28;;;27.85;;
34146;SDS011;20423;49.448;9.056;2023-04-16T06:58:29;58.40;;;26.40;;
34146;SDS011;20423;49.448;9.056;2023-04-16T07:00:55;49.50;;;24.23;;
34146;SDS011;20423;49.448;9.056;2023-04-16T07:03:20;72.78;;;29.10;;
34146;SDS011;20423;49.448;9.056;2023-04-16T07:05:46;62.30;;;27.10;;
34146;SDS011;20423;49.448;9.056;2023-04-16T07:08:12;53.35;;;25.48;;
34146;SDS011;20423;49.448;9.056;2023-04-16T07:10:37;48.05;;;23.95;;
34146;SDS011;20423;49.448;9.056;2023-04-16T07:13:03;53.88;;;26.80;;
34146;SDS011;20423;49.448;9.056;2023-04-16T07:15:29;55.55;;;26.15;;
34146;SDS011;20423;49.448;9.056;2023-04-16T07:17:55;61.80;;;29.88;;
34146;SDS011;20423;49.448;9.056;2023-04-16T07:20:20;55.90;;;27.45;;
34146;SDS011;20423;49.448;9.056;2023-04-16T07:22:46;64.75;;;28.75;;
34146;SDS011;20423;49.448;9.056;2023-04-16T07:25:12;61.90;;;26.85;;
34146;SDS011;20423;49.448;9.056;2023-04-16T07:27:41;60.70;;;27.40;;
34146;SDS011;20423;49.448;9.056;2023-04-16T07:30:07;63.92;;;29.58;;
34146;SDS011;20423;49.448;9.056;2023-04-16T07:32:33;63.53;;;27.55;;
34146;SDS011;20423;49.448;9.056;2023-04-16T07:35:03;60.20;;;27.55;;
34146;SDS011;20423;49.448;9.056;2023-04-16T07:37:29;63.40;;;28.25;;
34146;SDS011;20423;49.448;9.056;2023-04-16T07:39:55;61.55;;;28.85;;
34146;SDS011;20423;49.448;9.056;2023-04-16T07:42:21;66.43;;;29.83;;
34146;SDS011;20423;49.448;9.056;2023-04-16T07:44:47;67.75;;;28.35;;
34146;SDS011;20423;49.448;9.056;2023-04-16T07:47:13;61.17;;;28.58;;
34146;SDS011;20423;49.448;9.056;2023-04-16T07:49:39;64.90;;;28.65;;
34146;SDS011;20423;49.448;9.056;2023-04-16T07:52:05;54.47;;;25.92;;
34146;SDS011;20423;49.448;9.056;2023-04-16T07:54:30;65.28;;;27.20;;
34146;SDS011;20423;49.448;9.056;2023-04-16T07:56:56;58.60;;;26.98;;
34146;SDS011;20423;49.448;9.056;2023-04-16T07:59:22;56.35;;;26.13;;
34146;SDS011;20423;49.448;9.056;2023-04-16T08:01:48;50.33;;;25.30;;
34146;SDS011;20423;49.448;9.056;2023-04-16T08:04:14;52.03;;;26.30;;
34146;SDS011;20423;49.448;9.056;2023-04-16T08:06:41;51.38;;;24.85;;
34146;SDS011;20423;49.448;9.056;2023-04-16T08:09:07;55.40;;;26.40;;
34146;SDS011;20423;49.448;9.056;2023-04-16T08:11:33;56.38;;;25.27;;
34146;SDS011;20423;49.448;9.056;2023-04-16T08:13:59;55.92;;;26.73;;
34146;SDS011;20423;49.448;9.056;2023-04-16T08:16:24;55.78;;;25.85;;
34146;SDS011;20423;49.448;9.056;2023-04-16T08:18:50;58.42;;;27.98;;
34146;SDS011;20423;49.448;9.056;2023-04-16T08:21:16;55.05;;;25.90;;
34146;SDS011;20423;49.448;9.056;2023-04-16T08:23:42;58.22;;;25.75;;
34146;SDS011;20423;49.448;9.056;2023-04-16T08:26:07;57.20;;;27.77;;
34146;SDS011;20423;49.448;9.056;2023-04-16T08:28:33;50.30;;;23.27;;
34146;SDS011;20423;49.448;9.056;2023-04-16T08:30:59;49.13;;;22.73;;
34146;SDS011;20423;49.448;9.056;2023-04-16T08:33:25;39.97;;;19.90;;
34146;SDS011;20423;49.448;9.056;2023-04-16T08:39:07;40.10;;;17.80;;
34146;SDS011;20423;49.448;9.056;2023-04-16T08:41:33;34.67;;;16.27;;
34146;SDS011;20423;49.448;9.056;2023-04-16T08:44:08;33.13;;;17.67;;
34146;SDS011;20423;49.448;9.056;2023-04-16T08:46:39;32.17;;;16.40;;
34146;SDS011;20423;49.448;9.056;2023-04-16T08:49:06;27.92;;;14.63;;
34146;SDS011;20423;49.448;9.056;2023-04-16T08:51:33;32.15;;;15.25;;
34146;SDS011;20423;49.448;9.056;2023-04-16T08:56:48;24.67;;;12.10;;
34146;SDS011;20423;49.448;9.056;2023-04-16T08:59:15;23.65;;;11.43;;
34146;SDS011;20423;49.448;9.056;2023-04-16T09:01:41;24.63;;;11.38;;
34146;SDS011;20423;49.448;9.056;2023-04-16T09:04:07;23.77;;;12.77;;
34146;SDS011;20423;49.448;9.056;2023-04-16T09:06:36;23.80;;;11.10;;
34146;SDS011;20423;49.448;9.056;2023-04-16T09:09:03;23.58;;;11.05;;
34146;SDS011;20423;49.448;9.056;2023-04-16T09:11:30;19.75;;;9.88;;
34146;SDS011;20423;49.448;9.056;2023-04-16T09:13:56;22.15;;;10.40;;
34146;SDS011;20423;49.448;9.056;2023-04-16T09:16:23;24.30;;;12.05;;
34146;SDS011;20423;49.448;9.056;2023-04-16T09:18:50;27.63;;;14.23;;
34146;SDS011;20423;49.448;9.056;2023-04-16T09:21:16;22.50;;;12.05;;
34146;SDS011;20423;49.448;9.056;2023-04-16T09:23:42;25.67;;;11.90;;
34146;SDS011;20423;49.448;9.056;2023-04-16T09:26:08;21.77;;;11.55;;
34146;SDS011;20423;49.448;9.056;2023-04-16T09:28:40;22.90;;;10.30;;
34146;SDS011;20423;49.448;9.056;2023-04-16T09:31:17;26.33;;;11.48;;
34146;SDS011;20423;49.448;9.056;2023-04-16T09:34:01;25.65;;;13.00;;
34146;SDS011;20423;49.448;9.056;2023-04-16T09:36:30;23.80;;;11.90;;
34146;SDS011;20423;49.448;9.056;2023-04-16T09:38:57;22.73;;;10.13;;
34146;SDS011;20423;49.448;9.056;2023-04-16T09:41:24;22.73;;;11.68;;
34146;SDS011;20423;49.448;9.056;2023-04-16T09:43:53;21.55;;;11.30;;
34146;SDS011;20423;49.448;9.056;2023-04-16T09:46:23;24.52;;;11.32;;
34146;SDS011;20423;49.448;9.056;2023-04-16T09:49:08;22.23;;;11.63;;
34146;SDS011;20423;49.448;9.056;2023-04-16T09:51:47;20.63;;;10.57;;
34146;SDS011;20423;49.448;9.056;2023-04-16T09:54:18;19.33;;;9.85;;
34146;SDS011;20423;49.448;9.056;2023-04-16T09:56:45;26.90;;;12.55;;
34146;SDS011;20423;49.448;9.056;2023-04-16T09:59:17;19.38;;;9.85;;
34146;SDS011;20423;49.448;9.056;2023-04-16T10:01:43;21.50;;;11.07;;
34146;SDS011;20423;49.448;9.056;2023-04-16T10:04:13;19.00;;;10.65;;
34146;SDS011;20423;49.448;9.056;2023-04-16T10:06:40;21.85;;;10.45;;
34146;SDS011;20423;49.448;9.056;2023-04-16T10:09:09;21.52;;;10.75;;
34146;SDS011;20423;49.448;9.056;2023-04-16T10:11:34;21.98;;;10.65;;
34146;SDS011;20423;49.448;9.056;2023-04-16T10:14:01;21.70;;;11.60;;
34146;SDS011;20423;49.448;9.056;2023-04-16T10:16:28;23.80;;;11.43;;
34146;SDS011;20423;49.448;9.056;2023-04-16T10:18:57;21.35;;;10.50;;
34146;SDS011;20423;49.448;9.056;2023-04-16T10:21:38;28.23;;;12.40;;
34146;SDS011;20423;49.448;9.056;2023-04-16T10:24:51;24.15;;;11.63;;
34146;SDS011;20423;49.448;9.056;2023-04-16T10:27:25;20.75;;;12.40;;
34146;SDS011;20423;49.448;9.056;2023-04-16T10:29:51;26.08;;;12.82;;
34146;SDS011;20423;49.448;9.056;2023-04-16T10:32:19;24.08;;;12.57;;
34146;SDS011;20423;49.448;9.056;2023-04-16T10:34:45;23.05;;;13.35;;
34146;SDS011;20423;49.448;9.056;2023-04-16T10:37:12;29.55;;;15.05;;
34146;SDS011;20423;49.448;9.056;2023-04-16T10:39:39;26.00;;;13.35;;
34146;SDS011;20423;49.448;9.056;2023-04-16T10:42:09;29.83;;;15.65;;
34146;SDS011;20423;49.448;9.056;2023-04-16T10:44:36;27.73;;;15.00;;
34146;SDS011;20423;49.448;9.056;2023-04-16T10:47:02;26.85;;;14.10;;
34146;SDS011;20423;49.448;9.056;2023-04-16T10:49:35;31.90;;;15.85;;
34146;SDS011;20423;49.448;9.056;2023-04-16T10:52:06;26.58;;;14.35;;
34146;SDS011;20423;49.448;9.056;2023-04-16T10:54:34;26.30;;;14.50;;
34146;SDS011;20423;49.448;9.056;2023-04-16T10:57:14;30.80;;;16.25;;
34146;SDS011;20423;49.448;9.056;2023-04-16T10:59:42;29.20;;;15.90;;
34146;SDS011;20423;49.448;9.056;2023-04-16T11:02:15;32.42;;;15.77;;
34146;SDS011;20423;49.448;9.056;2023-04-16T11:04:43;32.22;;;16.42;;
34146;SDS011;20423;49.448;9.056;2023-04-16T11:09:45;40.15;;;17.15;;
34146;SDS011;20423;49.448;9.056;2023-04-16T11:14:54;34.83;;;18.95;;
34146;SDS011;20423;49.448;9.056;2023-04-16T11:17:21;34.38;;;19.17;;
34146;SDS011;20423;49.448;9.056;2023-04-16T11:19:47;38.60;;;19.00;;
34146;SDS011;20423;49.448;9.056;2023-04-16T11:22:13;37.53;;;18.27;;
34146;SDS011;20423;49.448;9.056;2023-04-16T11:24:45;36.20;;;19.65;;
34146;SDS011;20423;49.448;9.056;2023-04-16T11:27:12;36.58;;;18.73;;
34146;SDS011;20423;49.448;9.056;2023-04-16T11:29:39;37.53;;;20.13;;
34146;SDS011;20423;49.448;9.056;2023-04-16T11:32:05;37.88;;;20.15;;
34146;SDS011;20423;49.448;9.056;2023-04-16T11:34:31;41.25;;;21.20;;
34146;SDS011;20423;49.448;9.056;2023-04-16T11:36:57;37.15;;;19.85;;
34146;SDS011;20423;49.448;9.056;2023-04-16T11:39:23;38.47;;;20.02;;
34146;SDS011;20423;49.448;9.056;2023-04-16T11:41:50;40.35;;;21.45;;
34146;SDS011;20423;49.448;9.056;2023-04-16T11:44:20;42.47;;;20.92;;
34146;SDS011;20423;49.448;9.056;2023-04-16T11:49:14;43.28;;;21.10;;
34146;SDS011;20423;49.448;9.056;2023-04-16T11:51:45;43.83;;;20.30;;
34146;SDS011;20423;49.448;9.056;2023-04-16T11:54:21;38.72;;;21.77;;
34146;SDS011;20423;49.448;9.056;2023-04-16T11:56:49;41.78;;;21.83;;
34146;SDS011;20423;49.448;9.056;2023-04-16T11:59:18;45.08;;;22.48;;
34146;SDS011;20423;49.448;9.056;2023-04-16T12:01:49;42.90;;;22.55;;
34146;SDS011;20423;49.448;9.056;2023-04-16T12:04:17;43.28;;;22.67;;
34146;SDS011;20423;49.448;9.056;2023-04-16T12:09:40;46.38;;;23.45;;
34146;SDS011;20423;49.448;9.056;2023-04-16T12:12:26;46.35;;;23.80;;
34146;SDS011;20423;49.448;9.056;2023-04-16T12:14:54;47.22;;;23.67;;
34146;SDS011;20423;49.448;9.056;2023-04-16T12:17:21;48.15;;;23.75;;
34146;SDS011;20423;49.448;9.056;2023-04-16T12:19:49;49.33;;;24.52;;
34146;SDS011;20423;49.448;9.056;2023-04-16T12:22:25;46.45;;;24.45;;
34146;SDS011;20423;49.448;9.056;2023-04-16T12:25:01;45.35;;;23.45;;
34146;SDS011;20423;49.448;9.056;2023-04-16T12:27:50;46.45;;;23.90;;
34146;SDS011;20423;49.448;9.056;2023-04-16T12:30:17;52.45;;;24.83;;
34146;SDS011;20423;49.448;9.056;2023-04-16T12:32:44;46.30;;;24.20;;
34146;SDS011;20423;49.448;9.056;2023-04-16T12:35:12;50.42;;;25.52;;
34146;SDS011;20423;49.448;9.056;2023-04-16T12:37:38;50.15;;;25.33;;
34146;SDS011;20423;49.448;9.056;2023-04-16T12:40:05;43.65;;;24.20;;
34146;SDS011;20423;49.448;9.056;2023-04-16T12:42:31;50.92;;;26.38;;
34146;SDS011;20423;49.448;9.056;2023-04-16T12:45:01;57.20;;;28.05;;
34146;SDS011;20423;49.448;9.056;2023-04-16T12:47:28;57.75;;;27.30;;
34146;SDS011;20423;49.448;9.056;2023-04-16T12:49:55;55.72;;;27.25;;
34146;SDS011;20423;49.448;9.056;2023-04-16T12:52:22;61.60;;;29.63;;
34146;SDS011;20423;49.448;9.056;2023-04-16T12:54:48;60.78;;;27.42;;
34146;SDS011;20423;49.448;9.056;2023-04-16T12:57:14;56.83;;;27.08;;
34146;SDS011;20423;49.448;9.056;2023-04-16T12:59:40;58.55;;;30.08;;
34146;SDS011;20423;49.448;9.056;2023-04-16T13:02:06;64.07;;;30.77;;
34146;SDS011;20423;49.448;9.056;2023-04-16T13:04:32;70.30;;;31.25;;
34146;SDS011;20423;49.448;9.056;2023-04-16T13:06:58;57.38;;;28.75;;
34146;SDS011;20423;49.448;9.056;2023-04-16T13:09:24;70.55;;;32.05;;
34146;SDS011;20423;49.448;9.056;2023-04-16T13:11:51;64.82;;;30.70;;
34146;SDS011;20423;49.448;9.056;2023-04-16T13:14:17;60.90;;;29.88;;
34146;SDS011;20423;49.448;9.056;2023-04-16T13:16:43;65.53;;;30.27;;
34146;SDS011;20423;49.448;9.056;2023-04-16T13:19:09;64.82;;;31.95;;
34146;SDS011;20423;49.448;9.056;2023-04-16T13:21:35;58.58;;;28.17;;
34146;SDS011;20423;49.448;9.056;2023-04-16T13:24:00;69.03;;;30.75;;
34146;SDS011;20423;49.448;9.056;2023-04-16T13:26:26;65.80;;;28.88;;